Lyndhurst, NJ (07071)

6:51 PM EDT on August 03, 2015 (GMT -0400)
North Arlington EMS | | Change Station
CLOSE
Current Station
Personal Weather Station
Location: North Arlington, NJ
Elevation: 27 ft
Nearby Weather Stations

Elev 27 ft 40.79 °N, 74.12 °W | Updated 21 seconds ago

Partly Cloudy
Partly Cloudy
89.8 °F
Feels Like 93 °F
N
0.0
Wind Variable Wind from SSW
Gusts 0.0 mph

Today
High -- | Low -- °F
--% Chance of Precip.
Yesterday
High -- | Low -- °F
Precip. -- in
5:54 AM 8:10 PM
Waning Gibbous, 83% visible
Pressure 29.75 in
Visibility 10.0 miles
Clouds Mostly Cloudy 8000 ft
Heat Index 93 °F
Dew Point 66 °F
Humidity 46%
Rainfall 0.00 in
Snow Depth Not available.
UV 1 out of 12
Pollen 7.80 out of 12
Air Quality Not available.
Flu Activity Not available.
METAR KTEB 032151Z 20012KT 10SM BKN080 32/14 A2975 RMK AO2 SLP072 T03220144

More Conditions Fewer Conditions

Pressure 29.75 in
Visibility 10.0 miles
Clouds Mostly Cloudy 8000 ft
Heat Index 93 °F
Dew Point 66 °F
Humidity 46%
Rainfall 0.00 in
Snow Depth Not available.
UV 1 out of 12
Pollen 7.80 out of 12
Air Quality Not available.
Flu Activity Not available.
METAR KTEB 032151Z 20012KT 10SM BKN080 32/14 A2975 RMK AO2 SLP072 T03220144

More Conditions Fewer Conditions

10-Day Weather Forecast

×

Almanac

Astronomy

Aug. 03, 2015 Rise Set
Actual Time
Civil Twilight
Nautical Twilight
Astronomical Twilight
Moon
Length of Visible Light
Length of Day
Tomorrow will be .
, % of the Moon is Illuminated

Today's Extremes

State Highs State Lows

Community

WunderPhotos

Upload Photos

1,843,785 photos uploaded!

WunderBlogs® & News

Nearby

Air Quality

  Air Quality AQ Index Pollutant
Not available.

Snow Depth

Station Depth Elevation

Earthquake Activity

City Distance Mag. Time & Date
Minimum magnitude displayed is 2.5.

Coastal Water Temperatures

Place Temperature

Stations

Nearby Weather Stations

Station Location Temp. Windchill Dew Point Humidity Wind Precip. Elev Updated Type